Time;durP1;ratioP1;P1;durP2;ratioP2;P2;SDS_P1;SDS_P2;PMS_P1;PMS_P2;Temp;Humidity;BMP_temperature;BMP_pressure;BME280_temperature;BME280_humidity;BME280_pressure;Samples;Min_cycle;Max_cycle;Signal;HPM_P1;HPM_P2
2021/05/23 00:01:15;;;;;;;2.00;0.45;;;;;;;15.67;60.44;99265.83;1759174;80;21474;-52
2021/05/23 00:03:42;;;;;;;0.85;0.50;;;;;;;15.65;60.88;99265.59;1758843;80;21436;-50
2021/05/23 00:06:08;;;;;;;1.00;0.40;;;;;;;15.64;61.39;99262.50;1757589;80;21087;-50
2021/05/23 00:08:36;;;;;;;2.27;0.30;;;;;;;15.63;62.16;99272.49;1757355;80;21231;-54
2021/05/23 00:11:07;;;;;;;1.15;0.33;;;;;;;15.62;63.67;99275.31;1760136;80;21174;-50
2021/05/23 00:13:42;;;;;;;0.33;0.30;;;;;;;15.54;63.74;99268.25;1757386;80;21320;-54
2021/05/23 00:16:11;;;;;;;0.47;0.40;;;;;;;15.46;64.10;99261.54;1760322;80;22061;-49
2021/05/23 00:18:41;;;;;;;1.85;0.30;;;;;;;15.42;64.97;99263.22;1765131;79;21016;-51
2021/05/23 00:21:08;;;;;;;2.47;0.40;;;;;;;15.39;65.51;99252.63;1757153;80;21613;-53
2021/05/23 00:23:35;;;;;;;1.85;0.40;;;;;;;15.35;66.09;99252.47;1756347;80;21681;-54
2021/05/23 00:26:01;;;;;;;4.80;0.40;;;;;;;15.31;66.51;99256.41;1758790;80;21427;-53
2021/05/23 00:28:27;;;;;;;0.70;0.50;;;;;;;15.25;66.96;99250.07;1757248;80;21107;-52
2021/05/23 00:30:54;;;;;;;0.85;0.40;;;;;;;15.18;67.42;99256.45;1757871;80;21091;-51
2021/05/23 00:33:20;;;;;;;0.60;0.40;;;;;;;15.14;68.12;99257.16;1757290;80;21134;-53
2021/05/23 00:35:46;;;;;;;0.70;0.40;;;;;;;15.09;68.48;99257.14;1757767;80;21418;-52
2021/05/23 00:38:13;;;;;;;0.75;0.50;;;;;;;15.03;68.81;99253.05;1754058;80;21144;-53
2021/05/23 00:40:40;;;;;;;0.78;0.50;;;;;;;15.00;69.17;99258.69;1756768;80;21130;-51
2021/05/23 00:43:14;;;;;;;4.42;0.80;;;;;;;14.95;69.31;99245.98;1758843;80;21844;-52
2021/05/23 00:45:42;;;;;;;2.12;0.70;;;;;;;14.92;69.59;99252.10;1758052;80;21627;-52
2021/05/23 00:48:09;;;;;;;3.62;0.72;;;;;;;14.87;69.88;99253.81;1758727;80;21409;-49
2021/05/23 00:50:35;;;;;;;2.02;1.20;;;;;;;14.83;70.14;99259.55;1761402;80;20982;-53
2021/05/23 00:53:02;;;;;;;3.37;0.60;;;;;;;14.77;70.15;99266.30;1760242;80;21626;-50
2021/05/23 00:55:29;;;;;;;1.17;0.55;;;;;;;14.75;70.29;99264.18;1757223;80;21091;-49
2021/05/23 00:57:55;;;;;;;1.35;0.60;;;;;;;14.73;70.51;99270.19;1757289;80;21191;-52
2021/05/23 01:00:47;;;;;;;0.80;0.50;;;;;;;14.70;70.76;99273.14;1765893;80;21120;-53
2021/05/23 01:03:29;;;;;;;3.40;0.60;;;;;;;14.69;70.91;99274.12;1766172;80;21088;-50
2021/05/23 01:06:04;;;;;;;0.80;0.53;;;;;;;14.67;71.08;99278.28;1763901;80;21088;-53
2021/05/23 01:08:30;;;;;;;;;;;;;;;14.64;71.17;99279.84;1771885;80;21518;-50
2021/05/23 01:11:17;;;;;;;1.50;0.60;;;;;;;14.60;71.26;99270.23;1766931;80;21593;-51
2021/05/23 01:14:01;;;;;;;1.67;0.53;;;;;;;14.56;71.39;99271.41;1767802;80;20974;-50
2021/05/23 01:16:36;;;;;;;2.55;0.50;;;;;;;14.52;71.61;99276.69;1741950;80;21117;-52
2021/05/23 01:19:34;;;;;;;2.92;0.50;;;;;;;14.51;71.78;99283.08;1765972;80;21132;-51
2021/05/23 01:22:15;;;;;;;0.95;0.50;;;;;;;14.49;72.04;99280.95;1767363;80;21449;-52
2021/05/23 01:25:01;;;;;;;2.45;0.40;;;;;;;14.47;72.33;99284.25;1766285;80;21561;-50
2021/05/23 01:27:37;;;;;;;1.32;0.50;;;;;;;14.48;72.57;99293.25;1720753;80;20996;-50
2021/05/23 01:30:04;;;;;;;0.70;0.50;;;;;;;14.49;72.82;99292.28;1768510;80;21008;-52
2021/05/23 01:32:30;;;;;;;1.90;0.60;;;;;;;14.49;72.92;99296.34;1755927;80;20946;-51
2021/05/23 01:34:59;;;;;;;1.45;0.60;;;;;;;14.46;72.95;99300.13;1768389;80;20940;-48
2021/05/23 01:37:27;;;;;;;0.85;0.50;;;;;;;14.45;73.06;99298.91;1769000;80;21502;-50
2021/05/23 01:39:53;;;;;;;2.25;0.98;;;;;;;14.43;73.08;99295.43;1730735;82;21444;-52
2021/05/23 01:42:19;;;;;;;0.40;0.40;;;;;;;14.42;73.18;99291.86;1768930;80;20988;-51
2021/05/23 01:44:47;;;;;;;0.62;0.50;;;;;;;14.43;73.29;99300.36;1767185;80;21590;-52
2021/05/23 01:47:13;;;;;;;5.65;0.47;;;;;;;14.42;73.35;99305.39;1768061;80;20928;-50
2021/05/23 01:49:39;;;;;;;2.85;0.50;;;;;;;14.42;73.52;99309.94;1768121;80;21909;-53
2021/05/23 01:52:06;;;;;;;3.22;0.50;;;;;;;14.40;73.62;99308.69;1767062;80;21589;-53
2021/05/23 01:54:32;;;;;;;0.60;0.50;;;;;;;14.39;73.76;99305.59;1731605;82;20990;-53
2021/05/23 01:56:59;;;;;;;3.10;0.50;;;;;;;14.41;73.83;99310.43;1767739;80;20933;-52
2021/05/23 01:59:25;;;;;;;2.20;0.50;;;;;;;14.41;73.86;99310.91;1764443;80;20956;-53
2021/05/23 02:01:52;;;;;;;3.25;0.50;;;;;;;14.38;73.80;99310.59;1761562;80;21578;-52
2021/05/23 02:04:19;;;;;;;0.40;0.40;;;;;;;14.37;73.75;99319.73;1758546;80;21585;-52
2021/05/23 02:06:45;;;;;;;2.37;0.50;;;;;;;14.33;73.76;99324.47;1759503;80;20981;-49
2021/05/23 02:09:12;;;;;;;1.95;0.50;;;;;;;14.30;73.75;99320.62;1762551;80;21463;-52
2021/05/23 02:11:39;;;;;;;1.00;0.40;;;;;;;14.29;73.92;99323.46;1762205;80;20947;-49
2021/05/23 02:14:05;;;;;;;1.25;0.40;;;;;;;14.28;74.07;99325.78;1757704;80;21017;-50
2021/05/23 02:16:33;;;;;;;1.32;0.60;;;;;;;14.28;74.18;99328.48;1698577;82;20962;-50
2021/05/23 02:19:00;;;;;;;2.62;0.50;;;;;;;14.28;74.27;99333.42;1759473;80;21146;-50
2021/05/23 02:21:26;;;;;;;2.67;1.02;;;;;;;14.29;74.34;99335.12;1754707;80;21084;-49
2021/05/23 02:23:55;;;;;;;1.12;0.55;;;;;;;14.30;74.37;99334.64;1759633;80;21099;-51
2021/05/23 02:26:22;;;;;;;2.98;0.60;;;;;;;14.30;74.39;99341.41;1759903;80;21628;-49
2021/05/23 02:28:49;;;;;;;0.93;0.50;;;;;;;14.29;74.54;99340.54;1758617;80;21112;-51
2021/05/23 02:31:16;;;;;;;0.90;0.55;;;;;;;14.30;74.62;99344.98;1760555;80;20902;-51
2021/05/23 02:33:42;;;;;;;3.67;0.50;;;;;;;14.31;74.65;99343.14;1759107;80;20980;-49
2021/05/23 02:36:08;;;;;;;4.10;0.60;;;;;;;14.32;74.71;99340.83;1756830;80;21143;-52
2021/05/23 02:38:35;;;;;;;0.88;0.50;;;;;;;14.33;74.71;99341.20;1756952;80;21662;-53
2021/05/23 02:41:01;;;;;;;4.80;0.80;;;;;;;14.33;74.73;99340.72;1722456;82;22697;-52
2021/05/23 02:43:29;;;;;;;4.28;0.75;;;;;;;14.32;74.83;99344.40;1758215;80;21497;-50
2021/05/23 02:45:56;;;;;;;1.37;0.80;;;;;;;14.31;74.84;99344.02;1720939;82;20959;-49
2021/05/23 02:48:22;;;;;;;3.12;0.70;;;;;;;14.33;74.86;99342.56;1760001;80;21047;-48
2021/05/23 02:50:52;;;;;;;3.45;0.60;;;;;;;14.33;74.91;99340.72;1757631;80;21739;-51
2021/05/23 02:53:19;;;;;;;2.65;0.80;;;;;;;14.34;74.92;99345.16;1759088;79;21008;-53
2021/05/23 02:55:47;;;;;;;1.35;0.65;;;;;;;14.35;74.93;99341.48;1760215;80;21035;-53
2021/05/23 02:58:14;;;;;;;1.05;0.70;;;;;;;14.37;74.98;99344.09;1759397;80;21024;-53
2021/05/23 03:00:42;;;;;;;2.02;0.60;;;;;;;14.38;75.00;99345.34;1756323;80;20994;-51
2021/05/23 03:03:09;;;;;;;2.90;0.60;;;;;;;14.40;75.04;99347.95;1758938;79;21731;-49
2021/05/23 03:05:35;;;;;;;1.22;0.68;;;;;;;14.41;75.13;99343.41;1759420;80;21507;-52
2021/05/23 03:08:03;;;;;;;1.75;0.80;;;;;;;14.42;75.16;99347.84;1759855;80;21579;-49
2021/05/23 03:10:33;;;;;;;3.12;0.70;;;;;;;14.42;75.12;99347.84;1759717;80;21652;-52
2021/05/23 03:13:00;;;;;;;1.65;0.80;;;;;;;14.42;75.19;99350.07;1760130;80;21560;-52
2021/05/23 03:15:28;;;;;;;2.02;0.55;;;;;;;14.43;75.24;99349.59;1757315;80;22319;-51
2021/05/23 03:17:56;;;;;;;0.60;0.50;;;;;;;14.42;75.26;99350.56;1758736;80;21324;-52
2021/05/23 03:20:23;;;;;;;4.62;0.65;;;;;;;14.43;75.37;99345.53;1756421;80;21127;-50
2021/05/23 03:22:52;;;;;;;1.42;0.50;;;;;;;14.44;75.44;99354.03;1757630;80;21016;-54
2021/05/23 03:25:19;;;;;;;0.68;0.50;;;;;;;14.45;75.54;99351.22;1722173;82;21717;-50
2021/05/23 03:27:45;;;;;;;1.10;0.50;;;;;;;14.47;75.59;99348.38;1756616;80;21607;-51
2021/05/23 03:30:16;;;;;;;1.67;0.70;;;;;;;14.49;75.66;99344.60;1757753;80;21159;-52
2021/05/23 03:32:43;;;;;;;1.45;0.80;;;;;;;14.52;75.63;99353.00;1760474;80;20949;-50
2021/05/23 03:35:10;;;;;;;1.20;0.70;;;;;;;14.52;75.56;99356.58;1758835;80;21155;-51
2021/05/23 03:37:37;;;;;;;0.75;0.62;;;;;;;14.54;75.62;99364.12;1755322;80;21113;-50
2021/05/23 03:40:07;;;;;;;8.38;0.80;;;;;;;14.58;75.71;99366.11;1758706;80;21082;-53
2021/05/23 03:42:34;;;;;;;1.47;0.57;;;;;;;14.59;75.75;99359.72;1759444;80;20976;-49
2021/05/23 03:45:00;;;;;;;2.98;0.60;;;;;;;14.61;75.83;99361.35;1756259;80;21004;-54
2021/05/23 03:47:27;;;;;;;4.25;0.57;;;;;;;14.65;75.89;99365.55;1760248;80;21190;-54
2021/05/23 03:49:54;;;;;;;0.68;0.50;;;;;;;14.69;75.91;99381.98;1757123;80;21090;-51
2021/05/23 03:52:21;;;;;;;3.87;0.60;;;;;;;14.75;76.08;99380.67;1759843;80;21191;-50
2021/05/23 03:54:47;;;;;;;0.70;0.60;;;;;;;14.81;76.11;99379.36;1758369;80;21085;-51
2021/05/23 03:57:14;;;;;;;4.17;0.60;;;;;;;14.86;76.07;99381.27;1758517;80;21068;-51
2021/05/23 03:59:40;;;;;;;0.70;0.60;;;;;;;14.89;76.05;99381.03;1756481;80;21117;-50
2021/05/23 04:02:07;;;;;;;1.27;0.75;;;;;;;14.91;75.85;99383.15;1735961;80;21093;-53
2021/05/23 04:04:46;;;;;;;1.40;0.60;;;;;;;14.95;75.72;99388.75;1735796;80;21171;-53
2021/05/23 04:07:05;;;;;;;0.70;0.57;;;;;;;15.05;75.63;99399.31;1734128;80;21759;-53
2021/05/23 04:09:32;;;;;;;1.80;0.60;;;;;;;15.11;75.61;99399.72;1672500;82;21746;-54
2021/05/23 04:11:58;;;;;;;0.65;0.50;;;;;;;15.21;75.48;99408.55;1637337;83;21132;-49
2021/05/23 04:14:26;;;;;;;0.70;0.53;;;;;;;15.27;75.33;99417.58;1675388;83;21080;-51
2021/05/23 04:16:52;;;;;;;0.55;0.50;;;;;;;15.33;74.89;99422.06;1679872;83;21159;-53
2021/05/23 04:19:19;;;;;;;3.80;0.60;;;;;;;15.37;74.71;99430.86;1674116;83;21988;-52
2021/05/23 04:21:46;;;;;;;2.87;0.60;;;;;;;15.40;74.62;99423.83;1648604;83;21092;-51
2021/05/23 04:24:13;;;;;;;1.12;0.42;;;;;;;15.43;74.37;99427.20;1674440;83;21182;-54
2021/05/23 04:26:40;;;;;;;1.82;0.60;;;;;;;15.42;73.85;99429.53;1673285;83;21159;-54
2021/05/23 04:29:07;;;;;;;1.15;0.40;;;;;;;15.38;73.51;99430.75;1646861;83;21151;-50
2021/05/23 04:31:34;;;;;;;0.50;0.45;;;;;;;15.37;73.24;99422.23;1674476;83;21116;-53
2021/05/23 04:34:01;;;;;;;0.45;0.40;;;;;;;15.36;73.07;99425.92;1673279;83;21732;-52
2021/05/23 04:36:27;;;;;;;3.90;0.50;;;;;;;15.35;72.81;99428.73;1737414;80;21595;-50
2021/05/23 04:38:54;;;;;;;0.75;0.40;;;;;;;15.34;72.69;99430.58;1740680;80;20966;-51
2021/05/23 04:41:20;;;;;;;0.30;0.30;;;;;;;15.33;72.66;99434.75;1736595;80;21026;-52
2021/05/23 04:43:46;;;;;;;0.60;0.50;;;;;;;15.31;72.64;99436.22;1739722;80;21012;-54
2021/05/23 04:46:14;;;;;;;1.35;0.40;;;;;;;15.31;72.59;99440.80;1741747;80;20887;-54
2021/05/23 04:48:40;;;;;;;0.42;0.30;;;;;;;15.30;72.63;99445.36;1737881;80;21010;-50
2021/05/23 04:51:06;;;;;;;0.53;0.40;;;;;;;15.31;72.73;99448.94;1736899;80;21298;-51
2021/05/23 04:53:33;;;;;;;0.35;0.30;;;;;;;15.33;72.90;99442.89;1736259;80;22063;-54
2021/05/23 04:55:59;;;;;;;1.70;0.30;;;;;;;15.38;72.97;99449.73;1737857;80;21572;-54
2021/05/23 04:58:25;;;;;;;0.42;0.23;;;;;;;15.44;73.02;99445.70;1735291;80;21174;-52
2021/05/23 05:00:51;;;;;;;0.47;0.23;;;;;;;15.52;72.96;99444.16;1747634;80;21032;-50
2021/05/23 05:03:18;;;;;;;0.40;0.20;;;;;;;15.64;72.70;99437.01;1761262;80;20932;-53
2021/05/23 05:05:44;;;;;;;0.60;0.28;;;;;;;15.74;72.46;99440.75;1758221;80;21460;-54
2021/05/23 05:08:11;;;;;;;0.33;0.20;;;;;;;15.84;71.13;99432.30;1719951;81;21178;-51
2021/05/23 05:10:37;;;;;;;0.33;0.25;;;;;;;15.93;70.36;99436.17;1751743;80;21089;-54
2021/05/23 05:13:03;;;;;;;0.25;0.20;;;;;;;16.00;70.10;99442.00;1754290;80;21501;-54
2021/05/23 05:15:31;;;;;;;1.40;0.30;;;;;;;16.05;69.87;99445.26;1755243;80;21088;-52
2021/05/23 05:17:58;;;;;;;0.30;0.20;;;;;;;16.10;69.63;99447.98;1756986;80;21175;-54
2021/05/23 05:20:26;;;;;;;0.20;0.20;;;;;;;16.17;69.48;99447.02;1755993;80;21135;-52
2021/05/23 05:22:53;;;;;;;0.30;0.20;;;;;;;16.26;69.43;99447.69;1760913;80;21416;-53
2021/05/23 05:25:19;;;;;;;0.95;0.20;;;;;;;16.35;69.31;99443.40;1760620;80;20948;-52
2021/05/23 05:27:46;;;;;;;0.60;0.30;;;;;;;16.41;68.67;99452.45;1758932;80;21123;-50
2021/05/23 05:30:15;;;;;;;0.98;0.28;;;;;;;16.48;68.81;99451.86;1758680;80;21056;-51
2021/05/23 05:32:42;;;;;;;1.10;0.30;;;;;;;16.56;68.28;99446.70;1762698;80;21404;-51
2021/05/23 05:35:10;;;;;;;2.72;0.30;;;;;;;16.68;68.00;99452.18;1759793;80;21013;-53
2021/05/23 05:37:36;;;;;;;0.28;0.20;;;;;;;16.73;67.56;99455.42;1759291;80;20962;-53
2021/05/23 05:40:04;;;;;;;0.28;0.20;;;;;;;16.80;66.69;99453.95;1758327;80;20930;-51
2021/05/23 05:42:31;;;;;;;0.30;0.30;;;;;;;16.82;66.41;99462.37;1757090;80;21095;-52
2021/05/23 05:44:57;;;;;;;0.28;0.20;;;;;;;16.82;66.05;99458.78;1755967;80;21090;-54
2021/05/23 05:47:23;;;;;;;1.67;0.30;;;;;;;16.90;65.01;99463.12;1757036;80;21088;-53
2021/05/23 05:49:50;;;;;;;0.70;0.25;;;;;;;16.90;65.01;99463.12;1758307;80;21158;-52
2021/05/23 05:52:17;;;;;;;1.47;0.13;;;;;;;17.01;63.56;99470.78;1759240;80;20958;-51
2021/05/23 05:54:43;;;;;;;0.82;0.20;;;;;;;17.04;63.31;99475.13;1760434;80;21750;-52
2021/05/23 05:57:09;;;;;;;0.20;0.20;;;;;;;17.04;63.31;99475.13;1762091;80;21928;-54
2021/05/23 05:59:35;;;;;;;0.80;0.30;;;;;;;17.07;62.21;99479.46;1723765;81;20993;-52
2021/05/23 06:02:02;;;;;;;0.85;0.20;;;;;;;17.02;62.21;99477.09;1740787;80;21081;-52
2021/05/23 06:04:28;;;;;;;0.30;0.20;;;;;;;16.98;62.88;99485.13;1742723;80;21094;-51
2021/05/23 06:06:55;;;;;;;1.47;0.20;;;;;;;16.99;62.49;99486.87;1741312;81;21460;-50
2021/05/23 06:09:21;;;;;;;0.50;0.20;;;;;;;16.99;62.49;99486.87;1744399;81;21157;-52
2021/05/23 06:11:48;;;;;;;0.70;0.30;;;;;;;16.99;62.13;99495.89;1740741;80;21079;-49
2021/05/23 06:14:14;;;;;;;0.75;0.30;;;;;;;16.99;62.58;99492.30;1735245;80;21182;-51
2021/05/23 06:16:41;;;;;;;0.98;0.30;;;;;;;17.05;62.25;99496.38;1737940;80;21142;-53
2021/05/23 06:19:07;;;;;;;0.25;0.20;;;;;;;17.08;61.31;99492.94;1734343;80;21107;-53
2021/05/23 06:21:33;;;;;;;0.75;0.20;;;;;;;17.10;61.50;99489.58;1737200;80;21137;-52
2021/05/23 06:24:00;;;;;;;0.30;0.20;;;;;;;17.17;61.46;99485.42;1739523;80;21962;-53
2021/05/23 06:26:26;;;;;;;0.30;0.20;;;;;;;17.19;61.35;99488.86;1738785;81;21181;-52
2021/05/23 06:28:54;;;;;;;1.52;0.20;;;;;;;17.25;60.60;99496.55;1731650;80;21174;-55
2021/05/23 06:31:22;;;;;;;3.72;0.30;;;;;;;17.23;60.45;99489.49;1734242;80;21155;-53
2021/05/23 06:33:48;;;;;;;0.30;0.28;;;;;;;17.23;60.42;99488.13;1709926;80;21118;-52
2021/05/23 06:36:15;;;;;;;1.50;0.20;;;;;;;17.26;60.37;99490.63;1736702;80;21125;-54
2021/05/23 06:38:42;;;;;;;0.70;0.20;;;;;;;17.27;59.49;99494.55;1735765;80;21098;-53
2021/05/23 06:41:09;;;;;;;0.78;0.20;;;;;;;17.30;59.30;99497.53;1736208;80;21123;-52
2021/05/23 06:43:36;;;;;;;0.28;0.20;;;;;;;17.32;58.75;99499.64;1737552;80;21062;-55
2021/05/23 06:46:02;;;;;;;0.20;0.20;;;;;;;17.35;58.37;99492.08;1738058;81;21078;-51
2021/05/23 06:48:29;;;;;;;2.25;0.23;;;;;;;17.40;58.18;99487.65;1740614;80;20948;-51
2021/05/23 06:50:55;;;;;;;0.42;0.40;;;;;;;17.38;58.35;99490.48;1740569;80;21068;-52
2021/05/23 06:53:23;;;;;;;0.28;0.20;;;;;;;17.41;58.45;99493.47;1737691;80;21115;-52
2021/05/23 06:55:49;;;;;;;0.40;0.30;;;;;;;17.44;58.30;99486.92;1739731;80;21371;-55
2021/05/23 06:58:15;;;;;;;0.78;0.20;;;;;;;17.44;58.72;99485.56;1736411;80;21532;-53
2021/05/23 07:00:42;;;;;;;0.30;0.20;;;;;;;17.40;57.53;99488.52;1736423;81;21107;-54
2021/05/23 07:03:08;;;;;;;1.02;0.20;;;;;;;17.33;57.16;99491.36;1710437;80;21613;-55
2021/05/23 07:05:37;;;;;;;0.75;0.20;;;;;;;17.32;57.28;99495.56;1712795;80;21547;-53
2021/05/23 07:08:05;;;;;;;3.40;0.20;;;;;;;17.33;57.06;99504.09;1714199;80;21541;-51
2021/05/23 07:10:32;;;;;;;0.50;0.20;;;;;;;17.35;56.52;99504.33;1714220;80;21041;-51
2021/05/23 07:12:58;;;;;;;0.30;0.20;;;;;;;17.40;56.01;99493.95;1714918;80;20928;-54
2021/05/23 07:15:24;;;;;;;0.30;0.17;;;;;;;17.47;55.62;99500.26;1712995;80;20976;-55
2021/05/23 07:17:53;;;;;;;0.40;0.20;;;;;;;17.47;56.38;99489.38;1714084;80;20964;-55
2021/05/23 07:20:20;;;;;;;2.05;0.20;;;;;;;17.50;55.94;99498.17;1716854;80;21049;-55
2021/05/23 07:22:46;;;;;;;4.50;0.23;;;;;;;17.50;55.24;99495.94;1713303;80;21048;-55
2021/05/23 07:25:14;;;;;;;0.40;0.30;;;;;;;17.51;54.91;99495.83;1715592;80;21059;-55
2021/05/23 07:27:41;;;;;;;0.33;0.30;;;;;;;17.52;55.35;99492.11;1716245;80;21483;-56
2021/05/23 07:30:09;;;;;;;0.30;0.20;;;;;;;17.55;54.82;99496.42;1714910;80;21071;-56
2021/05/23 07:32:35;;;;;;;0.90;0.20;;;;;;;17.61;55.23;99488.62;1693550;80;21091;-56
2021/05/23 07:35:02;;;;;;;0.25;0.13;;;;;;;17.69;54.68;99489.42;1713520;80;20979;-55
2021/05/23 07:37:30;;;;;;;0.98;0.20;;;;;;;17.79;53.83;99487.65;1715795;80;21715;-54
2021/05/23 07:39:56;;;;;;;1.00;0.17;;;;;;;17.90;53.45;99487.64;1714437;80;21111;-56
2021/05/23 07:42:22;;;;;;;0.30;0.20;;;;;;;17.99;53.35;99492.33;1713046;80;21116;-56
2021/05/23 07:44:49;;;;;;;0.30;0.15;;;;;;;18.03;51.93;99490.23;1714592;80;21835;-56
2021/05/23 07:47:16;;;;;;;0.20;0.10;;;;;;;18.02;51.85;99486.64;1715256;80;21162;-56
2021/05/23 07:49:42;;;;;;;0.75;0.30;;;;;;;18.04;52.22;99485.13;1710582;80;21539;-55
2021/05/23 07:52:10;;;;;;;3.27;0.17;;;;;;;18.03;51.96;99493.79;1713425;80;21537;-55
2021/05/23 07:54:40;;;;;;;1.02;0.20;;;;;;;18.01;51.86;99498.52;1711358;80;21544;-57
2021/05/23 07:57:07;;;;;;;1.02;0.15;;;;;;;18.03;50.87;99495.16;1715328;80;21569;-54
2021/05/23 07:59:34;;;;;;;0.33;0.15;;;;;;;18.07;51.08;99484.39;1709512;80;21103;-55
2021/05/23 08:02:00;;;;;;;0.40;0.20;;;;;;;18.18;50.87;99489.44;1724509;80;21153;-55
2021/05/23 08:04:27;;;;;;;0.23;0.13;;;;;;;18.31;50.77;99487.41;1759350;80;21115;-52
2021/05/23 08:06:53;;;;;;;0.40;0.15;;;;;;;18.43;50.78;99485.89;1755619;80;21540;-51
2021/05/23 08:09:21;;;;;;;0.40;0.20;;;;;;;18.50;50.30;99493.91;1755600;80;21099;-55
2021/05/23 08:11:49;;;;;;;2.05;0.23;;;;;;;18.55;50.13;99497.59;1757749;80;21064;-53
2021/05/23 08:14:15;;;;;;;1.65;0.10;;;;;;;18.56;50.89;99495.23;1723142;82;21141;-53
2021/05/23 08:16:44;;;;;;;0.60;0.20;;;;;;;18.61;50.38;99496.25;1758892;80;20968;-54
2021/05/23 08:19:12;;;;;;;0.55;0.20;;;;;;;18.62;49.85;99504.30;1756137;80;21277;-52
2021/05/23 08:21:39;;;;;;;1.27;0.20;;;;;;;18.71;49.54;99498.07;1758077;80;22813;-52
2021/05/23 08:24:07;;;;;;;0.88;0.20;;;;;;;18.80;49.15;99506.80;1757171;80;21672;-55
2021/05/23 08:26:34;;;;;;;0.62;0.20;;;;;;;18.90;48.71;99504.14;1760359;80;20953;-54
2021/05/23 08:29:01;;;;;;;0.30;0.20;;;;;;;18.98;48.62;99503.48;1756677;80;21145;-52
2021/05/23 08:31:29;;;;;;;0.55;0.20;;;;;;;19.04;47.48;99507.92;1758665;80;21820;-54
2021/05/23 08:33:57;;;;;;;0.62;0.20;;;;;;;19.18;48.00;99508.94;1758705;80;21038;-53
2021/05/23 08:36:24;;;;;;;0.20;0.10;;;;;;;19.29;47.42;99516.19;1759372;80;21037;-56
2021/05/23 08:38:50;;;;;;;1.27;0.20;;;;;;;19.39;45.48;99511.66;1756480;80;21581;-53
2021/05/23 08:41:18;;;;;;;0.20;0.13;;;;;;;19.43;44.59;99513.09;1757693;80;21544;-56
2021/05/23 08:43:45;;;;;;;0.30;0.20;;;;;;;19.40;43.75;99513.36;1756949;80;21000;-52
2021/05/23 08:46:12;;;;;;;0.20;0.10;;;;;;;19.37;43.88;99518.24;1738863;80;21480;-53
2021/05/23 08:48:40;;;;;;;0.40;0.13;;;;;;;19.33;44.22;99508.09;1758238;80;21206;-54
2021/05/23 08:51:10;;;;;;;1.32;0.10;;;;;;;19.40;44.81;99508.40;1755781;80;21378;-51
2021/05/23 08:53:36;;;;;;;0.62;0.20;;;;;;;19.47;44.83;99511.88;1758792;80;21495;-51
2021/05/23 08:56:03;;;;;;;0.55;0.10;;;;;;;19.54;44.39;99507.59;1757641;80;21658;-52
2021/05/23 08:58:30;;;;;;;0.20;0.10;;;;;;;19.61;43.16;99499.72;1755560;80;21315;-51
2021/05/23 09:00:56;;;;;;;0.23;0.20;;;;;;;19.60;41.82;99507.54;1753735;80;21216;-52
2021/05/23 09:03:23;;;;;;;0.37;0.10;;;;;;;19.55;42.11;99512.06;1755593;80;21685;-54
2021/05/23 09:05:56;;;;;;;0.82;0.10;;;;;;;19.53;43.23;99504.50;1760089;80;21127;-51
2021/05/23 09:08:29;;;;;;;0.45;0.15;;;;;;;19.60;43.00;99498.84;1755815;80;21124;-52
2021/05/23 09:11:04;;;;;;;0.65;0.20;;;;;;;19.69;42.04;99496.30;1758400;80;21139;-54
2021/05/23 09:15:45;;;;;;;2.35;0.20;;;;;;;19.87;40.81;99488.68;1746672;78;28169;-54
2021/05/23 09:18:15;;;;;;;0.47;0.20;;;;;;;19.89;41.29;99496.73;1718219;80;21417;-54
2021/05/23 09:20:42;;;;;;;0.25;0.20;;;;;;;19.92;41.39;99504.13;1726411;80;21910;-52
2021/05/23 09:23:22;;;;;;;0.35;0.20;;;;;;;19.97;40.04;99490.94;1726718;80;20916;-53
2021/05/23 09:25:49;;;;;;;0.10;0.10;;;;;;;20.01;41.69;99490.14;1726793;80;21028;-54
2021/05/23 09:28:16;;;;;;;1.42;0.20;;;;;;;20.08;41.75;99497.27;1719914;80;21118;-55
2021/05/23 09:30:45;;;;;;;0.80;0.13;;;;;;;20.13;41.33;99504.56;1722664;80;21059;-53
2021/05/23 09:33:21;;;;;;;3.55;0.20;;;;;;;20.11;40.54;99497.00;1721366;80;21116;-53
2021/05/23 09:35:47;;;;;;;0.17;0.10;;;;;;;20.08;40.54;99491.30;1725682;80;20968;-54
2021/05/23 09:38:15;;;;;;;1.12;0.10;;;;;;;20.02;40.62;99498.70;1726734;80;21067;-53
2021/05/23 09:40:43;;;;;;;1.05;0.20;;;;;;;20.00;41.09;99493.88;1724597;80;21167;-52
2021/05/23 09:43:21;;;;;;;0.90;0.20;;;;;;;19.98;41.45;99494.54;1723791;80;20960;-54
2021/05/23 09:45:52;;;;;;;1.20;0.10;;;;;;;20.00;40.36;99496.11;1726355;80;20992;-56
2021/05/23 09:48:26;;;;;;;0.30;0.10;;;;;;;20.06;40.16;99487.01;1723785;80;21434;-53
2021/05/23 09:50:56;;;;;;;0.40;0.10;;;;;;;20.12;40.17;99485.06;1723672;80;21035;-55
2021/05/23 09:53:28;;;;;;;0.33;0.20;;;;;;;20.21;39.77;99490.56;1723446;80;21020;-56
2021/05/23 09:56:07;;;;;;;1.67;0.20;;;;;;;20.30;38.49;99473.31;1722846;80;20952;-55
2021/05/23 09:58:36;;;;;;;0.40;0.20;;;;;;;20.34;38.26;99477.50;1721927;80;21502;-54
2021/05/23 10:01:04;;;;;;;1.47;0.20;;;;;;;20.39;39.90;99480.70;1723658;80;20980;-53
2021/05/23 10:03:32;;;;;;;2.37;0.20;;;;;;;20.41;39.57;99481.05;1722115;80;20946;-54
2021/05/23 10:05:59;;;;;;;0.20;0.10;;;;;;;20.41;39.82;99481.05;1723958;80;20917;-55
2021/05/23 10:08:27;;;;;;;0.40;0.20;;;;;;;20.39;39.40;99491.63;1725327;80;20973;-55
2021/05/23 10:10:54;;;;;;;1.22;0.20;;;;;;;20.37;39.97;99494.13;1724672;80;21086;-57
2021/05/23 10:13:22;;;;;;;0.30;0.20;;;;;;;20.36;40.37;99485.06;1726967;80;20921;-53
2021/05/23 10:15:50;;;;;;;0.30;0.15;;;;;;;20.42;40.68;99490.45;1723222;80;20960;-55
2021/05/23 10:18:17;;;;;;;0.50;0.30;;;;;;;20.51;39.93;99491.47;1719872;80;20952;-51
2021/05/23 10:20:44;;;;;;;0.40;0.20;;;;;;;20.58;39.60;99486.68;1723475;80;20964;-52
2021/05/23 10:23:20;;;;;;;0.15;0.13;;;;;;;20.71;40.55;99489.97;1722028;80;20971;-53
2021/05/23 10:25:49;;;;;;;3.45;0.20;;;;;;;20.86;40.01;99479.45;1724241;80;21399;-53
2021/05/23 10:28:18;;;;;;;0.42;0.20;;;;;;;21.04;39.50;99491.37;1726075;80;21463;-57
2021/05/23 10:30:53;;;;;;;0.37;0.20;;;;;;;21.20;39.14;99489.43;1721464;80;20957;-53
2021/05/23 10:33:20;;;;;;;0.25;0.10;;;;;;;21.36;39.25;99483.33;1718729;80;20917;-51
2021/05/23 10:35:50;;;;;;;0.40;0.20;;;;;;;21.47;38.72;99494.98;1722837;80;21042;-55
2021/05/23 10:38:20;;;;;;;0.53;0.20;;;;;;;21.52;36.71;99491.27;1718267;80;20980;-53
2021/05/23 10:41:04;;;;;;;1.55;0.20;;;;;;;21.57;36.53;99488.11;1720035;80;21196;-51
2021/05/23 10:43:34;;;;;;;0.33;0.20;;;;;;;21.63;37.67;99486.62;1720850;80;21374;-54
2021/05/23 10:46:12;;;;;;;0.35;0.17;;;;;;;21.72;36.25;99489.33;1719090;80;21525;-52
2021/05/23 10:48:41;;;;;;;1.12;0.20;;;;;;;21.70;36.48;99484.50;1713892;80;21786;-54
2021/05/23 10:51:18;;;;;;;0.30;0.20;;;;;;;21.64;36.36;99495.20;1716941;80;21282;-56
2021/05/23 10:53:44;;;;;;;0.50;0.20;;;;;;;21.57;35.55;99494.09;1721000;80;21358;-55
2021/05/23 10:56:31;;;;;;;0.20;0.10;;;;;;;21.41;36.16;99499.69;1715519;80;21609;-53
2021/05/23 10:59:00;;;;;;;0.53;0.20;;;;;;;21.24;36.15;99500.96;1718338;80;22121;-52
2021/05/23 11:01:43;;;;;;;4.40;0.20;;;;;;;21.07;36.19;99497.94;1717880;80;22024;-50
2021/05/23 11:04:16;;;;;;;0.75;0.17;;;;;;;20.97;35.84;99493.48;1719091;80;21758;-50
2021/05/23 11:06:44;;;;;;;0.40;0.23;;;;;;;20.90;36.21;99485.00;1715167;80;21565;-52
2021/05/23 11:09:21;;;;;;;0.28;0.10;;;;;;;20.91;36.81;99483.13;1718693;80;21330;-53
2021/05/23 11:11:48;;;;;;;0.95;0.20;;;;;;;20.97;37.31;99484.77;1719143;80;20961;-53
2021/05/23 11:14:23;;;;;;;2.60;0.20;;;;;;;21.01;37.22;99490.29;1718132;80;21063;-52
2021/05/23 11:16:57;;;;;;;0.55;0.10;;;;;;;21.06;36.92;99488.50;1718548;80;20961;-53
2021/05/23 11:19:25;;;;;;;0.30;0.20;;;;;;;21.07;37.52;99481.52;1716592;80;21035;-53
2021/05/23 11:21:54;;;;;;;0.42;0.13;;;;;;;21.13;37.47;99484.16;1716487;80;21004;-55
2021/05/23 11:24:34;;;;;;;0.40;0.20;;;;;;;21.19;36.04;99483.59;1716911;80;21123;-53
2021/05/23 11:27:17;;;;;;;0.35;0.20;;;;;;;21.14;35.43;99476.31;1714852;80;21138;-55
2021/05/23 11:29:52;;;;;;;0.30;0.17;;;;;;;21.09;35.17;99483.61;1719082;80;21579;-52
2021/05/23 11:32:19;;;;;;;0.45;0.20;;;;;;;21.04;36.42;99481.80;1714356;80;21115;-51
2021/05/23 11:34:46;;;;;;;0.40;0.20;;;;;;;21.06;35.89;99477.55;1717681;80;21104;-52
2021/05/23 11:37:13;;;;;;;2.70;0.23;;;;;;;21.10;35.31;99481.70;1713851;80;21462;-50
2021/05/23 11:39:39;;;;;;;0.47;0.10;;;;;;;21.15;35.67;99484.88;1717694;80;21207;-50
2021/05/23 11:42:06;;;;;;;1.67;0.10;;;;;;;21.21;35.57;99497.14;1718049;80;21124;-51